createdAt,value
2022-11-05T00:01:10.953Z,29.35
2022-11-05T00:03:38.991Z,29.33
2022-11-05T00:06:10.688Z,29.35
2022-11-05T00:08:40.351Z,29.37
2022-11-05T00:11:16.762Z,29.36
2022-11-05T00:13:46.172Z,29.40
2022-11-05T00:16:14.149Z,29.37
2022-11-05T00:18:42.221Z,29.43
2022-11-05T00:21:10.297Z,29.45
2022-11-05T00:23:38.476Z,29.31
2022-11-05T00:26:09.112Z,29.26
2022-11-05T00:28:38.177Z,29.29
2022-11-05T00:31:11.210Z,29.34
2022-11-05T00:33:40.536Z,29.19
2022-11-05T00:36:11.401Z,29.26
2022-11-05T00:38:39.624Z,29.27
2022-11-05T00:41:07.674Z,29.33
2022-11-05T00:43:35.977Z,29.31
2022-11-05T00:46:04.064Z,29.28
2022-11-05T00:48:32.337Z,29.40
2022-11-05T00:51:00.614Z,29.41
2022-11-05T00:53:29.206Z,29.45
2022-11-05T00:55:57.176Z,29.29
2022-11-05T00:58:25.252Z,29.19
2022-11-05T01:00:56.245Z,29.22
2022-11-05T01:03:36.344Z,29.17
2022-11-05T01:06:13.569Z,29.09
2022-11-05T01:08:44.369Z,28.98
2022-11-05T01:11:16.179Z,28.83
2022-11-05T01:13:44.615Z,28.77
2022-11-05T01:16:13.249Z,28.79
2022-11-05T01:18:41.381Z,28.77
2022-11-05T01:21:14.060Z,28.70
2022-11-05T01:23:42.237Z,28.68
2022-11-05T01:26:10.454Z,28.63
2022-11-05T01:28:38.851Z,28.58
2022-11-05T01:31:07.183Z,28.54
2022-11-05T01:33:35.361Z,28.61
2022-11-05T01:36:05.486Z,28.70
2022-11-05T01:38:33.560Z,28.68
2022-11-05T01:41:01.639Z,28.63
2022-11-05T01:43:56.188Z,28.53
2022-11-05T01:46:40.895Z,28.42
2022-11-05T01:49:32.700Z,28.51
2022-11-05T01:52:04.688Z,28.48
2022-11-05T01:54:34.886Z,28.49
2022-11-05T01:57:08.167Z,28.49
2022-11-05T01:59:48.584Z,28.40
2022-11-05T02:02:18.044Z,28.40
2022-11-05T02:04:55.103Z,28.38
2022-11-05T02:07:25.609Z,28.44
2022-11-05T02:10:02.321Z,28.45
2022-11-05T02:12:33.042Z,28.44
2022-11-05T02:15:01.032Z,28.38
2022-11-05T02:17:47.733Z,28.39
2022-11-05T02:20:34.126Z,28.36
2022-11-05T02:23:08.177Z,28.34
2022-11-05T02:26:12.746Z,28.39
2022-11-05T02:28:51.466Z,28.44
2022-11-05T02:31:41.651Z,28.42
2022-11-05T02:34:32.444Z,28.34
2022-11-05T02:37:14.732Z,28.34
2022-11-05T02:40:15.144Z,28.31
2022-11-05T02:42:54.386Z,28.34
2022-11-05T02:45:46.718Z,28.33
2022-11-05T02:48:22.209Z,28.21
2022-11-05T02:51:10.025Z,28.15
2022-11-05T02:54:03.245Z,28.11
2022-11-05T02:56:36.119Z,28.05
2022-11-05T02:59:04.299Z,28.02
2022-11-05T03:01:32.686Z,28.08
2022-11-05T03:04:04.039Z,28.13
2022-11-05T03:06:54.011Z,28.18
2022-11-05T03:09:28.610Z,28.23
2022-11-05T03:11:56.620Z,28.26
2022-11-05T03:14:24.688Z,28.28
2022-11-05T03:17:10.145Z,28.25
2022-11-05T03:19:38.117Z,28.03
2022-11-05T03:22:14.100Z,28.06
2022-11-05T03:24:49.149Z,28.00
2022-11-05T03:27:21.728Z,28.03
2022-11-05T03:29:54.808Z,27.89
2022-11-05T03:32:24.726Z,27.88
2022-11-05T03:35:00.148Z,27.92
2022-11-05T03:37:34.247Z,27.93
2022-11-05T03:40:06.689Z,28.02
2022-11-05T03:42:38.992Z,27.99
2022-11-05T03:45:25.914Z,28.00
2022-11-05T03:47:58.134Z,28.00
2022-11-05T03:51:01.465Z,27.91
2022-11-05T03:53:36.870Z,27.91
2022-11-05T03:56:18.192Z,27.84
2022-11-05T03:58:48.439Z,27.75
2022-11-05T04:01:16.711Z,27.67
2022-11-05T04:03:44.972Z,27.74
2022-11-05T04:06:14.018Z,27.70
2022-11-05T04:08:42.248Z,27.71
2022-11-05T04:11:11.702Z,27.61
2022-11-05T04:13:40.141Z,27.57
2022-11-05T04:16:08.215Z,27.61
2022-11-05T04:18:36.600Z,27.60
2022-11-05T04:21:06.218Z,27.59
2022-11-05T04:23:34.286Z,27.46
2022-11-05T04:26:02.399Z,27.44
2022-11-05T04:28:30.850Z,27.41
2022-11-05T04:30:59.034Z,27.54
2022-11-05T04:33:27.111Z,27.56
2022-11-05T04:35:55.286Z,27.57
2022-11-05T04:38:23.869Z,27.60
2022-11-05T04:40:52.046Z,27.62
2022-11-05T04:43:20.339Z,27.68
2022-11-05T04:45:48.815Z,27.63
2022-11-05T04:48:17.095Z,27.60
2022-11-05T04:50:45.270Z,27.65
2022-11-05T04:53:13.681Z,27.71
2022-11-05T04:55:41.936Z,27.72
2022-11-05T04:58:10.421Z,27.73
2022-11-05T05:00:38.526Z,27.71
2022-11-05T05:03:06.881Z,27.61
2022-11-05T05:05:35.535Z,27.55
2022-11-05T05:08:07.017Z,27.55
2022-11-05T05:10:35.097Z,27.57
2022-11-05T05:13:03.281Z,27.55
2022-11-05T05:15:31.458Z,27.60
2022-11-05T05:17:59.633Z,27.51
2022-11-05T05:20:28.117Z,27.42
2022-11-05T05:22:56.403Z,27.41
2022-11-05T05:25:24.577Z,27.44
2022-11-05T05:27:52.864Z,27.51
2022-11-05T05:30:21.139Z,27.56
2022-11-05T05:32:49.322Z,27.60
2022-11-05T05:35:17.596Z,27.59
2022-11-05T05:37:45.677Z,27.60
2022-11-05T05:40:13.853Z,27.58
2022-11-05T05:42:43.584Z,27.60
2022-11-05T05:45:12.461Z,27.58
2022-11-05T05:47:40.535Z,27.61
2022-11-05T05:50:08.714Z,27.60
2022-11-05T05:52:36.897Z,27.58
2022-11-05T05:55:05.595Z,27.53
2022-11-05T05:57:34.682Z,27.48
2022-11-05T06:00:03.987Z,27.51
2022-11-05T06:02:32.189Z,27.53
2022-11-05T06:05:00.311Z,27.54
2022-11-05T06:07:31.777Z,27.51
2022-11-05T06:10:02.943Z,27.46
2022-11-05T06:12:31.134Z,27.42
2022-11-05T06:14:59.300Z,27.41
2022-11-05T06:17:27.499Z,27.38
2022-11-05T06:19:55.757Z,27.35
2022-11-05T06:22:23.936Z,27.34
2022-11-05T06:24:52.013Z,27.29
2022-11-05T06:27:20.393Z,27.18
2022-11-05T06:29:48.394Z,27.20
2022-11-05T06:32:16.649Z,27.14
2022-11-05T06:34:44.732Z,27.17
2022-11-05T06:37:12.817Z,27.19
2022-11-05T06:39:41.183Z,27.12
2022-11-05T06:42:18.399Z,27.07
2022-11-05T06:44:47.472Z,27.01
2022-11-05T06:47:15.648Z,26.94
2022-11-05T06:49:43.821Z,26.90
2022-11-05T06:52:13.330Z,26.77
2022-11-05T06:54:42.227Z,26.80
2022-11-05T06:57:12.261Z,26.75
2022-11-05T06:59:40.861Z,26.60
2022-11-05T07:02:12.523Z,26.57
2022-11-05T07:04:40.771Z,26.60
2022-11-05T07:07:08.949Z,26.53
2022-11-05T07:09:37.541Z,26.56
2022-11-05T07:12:06.136Z,26.65
2022-11-05T07:14:34.209Z,26.83
2022-11-05T07:17:02.589Z,27.03
2022-11-05T07:19:30.902Z,27.15
2022-11-05T07:21:59.054Z,27.46
2022-11-05T07:24:27.223Z,27.77
2022-11-05T07:26:55.401Z,27.89
2022-11-05T07:29:23.683Z,27.96
2022-11-05T07:31:51.763Z,28.12
2022-11-05T07:34:20.145Z,28.20
2022-11-05T07:36:48.450Z,28.28
2022-11-05T07:39:16.708Z,28.40
2022-11-05T07:41:44.882Z,28.52
2022-11-05T07:44:13.170Z,28.66
2022-11-05T07:46:42.057Z,28.76
2022-11-05T07:49:10.133Z,28.89
2022-11-05T07:51:38.316Z,29.01
2022-11-05T07:54:06.490Z,29.01
2022-11-05T07:56:34.770Z,29.06
2022-11-05T07:59:03.051Z,29.13
2022-11-05T08:01:31.353Z,29.23
2022-11-05T08:03:59.718Z,29.34
2022-11-05T08:06:27.889Z,29.43
2022-11-05T08:08:56.071Z,29.57
2022-11-05T08:11:24.159Z,29.63
2022-11-05T08:13:52.323Z,29.73
2022-11-05T08:16:20.500Z,29.87
2022-11-05T08:18:48.684Z,30.01
2022-11-05T08:21:16.861Z,30.14
2022-11-05T08:23:45.039Z,30.25
2022-11-05T08:26:13.420Z,30.33
2022-11-05T08:28:41.599Z,30.41
2022-11-05T08:31:09.781Z,30.53
2022-11-05T08:33:37.961Z,30.65
2022-11-05T08:36:06.448Z,30.80
2022-11-05T08:38:34.618Z,30.96
2022-11-05T08:41:02.701Z,31.10
2022-11-05T08:43:30.873Z,31.26
2022-11-05T08:46:01.200Z,31.46
2022-11-05T08:48:29.627Z,31.65
2022-11-05T08:51:00.688Z,31.77
2022-11-05T08:53:28.806Z,31.79
2022-11-05T08:56:00.696Z,31.78
2022-11-05T08:58:28.854Z,31.89
2022-11-05T09:01:01.782Z,32.10
2022-11-05T09:03:32.880Z,32.29
2022-11-05T09:06:01.059Z,32.42
2022-11-05T09:08:29.234Z,32.58
2022-11-05T09:10:57.926Z,32.78
2022-11-05T09:13:26.835Z,32.61
2022-11-05T09:15:55.510Z,32.76
2022-11-05T09:18:23.689Z,32.91
2022-11-05T09:20:52.875Z,33.08
2022-11-05T09:23:20.967Z,33.16
2022-11-05T09:25:49.145Z,33.32
2022-11-05T09:28:20.060Z,33.46
2022-11-05T09:30:50.788Z,33.57
2022-11-05T09:33:22.171Z,33.67
2022-11-05T09:35:51.683Z,33.87
2022-11-05T09:38:19.978Z,34.04
2022-11-05T09:41:00.449Z,34.20
2022-11-05T09:43:37.606Z,34.28
2022-11-05T09:46:12.124Z,34.39
2022-11-05T09:48:42.554Z,34.54
2022-11-05T09:51:19.269Z,34.46
2022-11-05T09:53:51.702Z,34.26
2022-11-05T09:56:26.742Z,34.31
2022-11-05T09:59:22.984Z,34.29
2022-11-05T10:01:56.716Z,34.36
2022-11-05T10:04:25.473Z,34.36
2022-11-05T10:06:58.545Z,34.48
2022-11-05T10:09:43.709Z,34.68
2022-11-05T10:12:39.281Z,34.86
2022-11-05T10:15:41.229Z,34.92
2022-11-05T10:18:23.302Z,34.89
2022-11-05T10:20:51.643Z,34.90
2022-11-05T10:23:22.110Z,35.05
2022-11-05T10:26:09.099Z,35.17
2022-11-05T10:28:39.742Z,35.08
2022-11-05T10:31:15.174Z,35.18
2022-11-05T10:34:03.154Z,35.12
2022-11-05T10:36:36.962Z,35.18
2022-11-05T10:39:17.688Z,35.19
2022-11-05T10:42:04.557Z,35.23
2022-11-05T10:44:52.370Z,35.30
2022-11-05T10:47:52.595Z,35.32
2022-11-05T10:50:25.219Z,35.32
2022-11-05T10:53:13.575Z,35.40
2022-11-05T10:55:46.531Z,35.35
2022-11-05T10:58:17.635Z,35.17
2022-11-05T11:00:52.325Z,35.27
2022-11-05T11:03:34.779Z,35.40
2022-11-05T11:06:12.776Z,35.53
2022-11-05T11:08:45.437Z,35.76
2022-11-05T11:11:30.216Z,35.96
2022-11-05T11:13:59.925Z,36.02
2022-11-05T11:16:32.863Z,36.11
2022-11-05T11:19:02.593Z,36.15
2022-11-05T11:21:32.345Z,36.18
2022-11-05T11:24:05.850Z,36.18
2022-11-05T11:26:37.232Z,36.18
2022-11-05T11:29:05.275Z,36.28
2022-11-05T11:31:38.530Z,36.34
2022-11-05T11:34:20.760Z,36.53
2022-11-05T11:36:56.803Z,36.00
2022-11-05T11:39:29.403Z,36.01
2022-11-05T11:42:01.722Z,36.20
2022-11-05T11:44:34.820Z,36.48
2022-11-05T11:47:13.378Z,36.56
2022-11-05T11:49:58.033Z,36.68
2022-11-05T11:52:37.094Z,36.50
2022-11-05T11:55:11.287Z,36.67
2022-11-05T11:57:53.984Z,36.89
2022-11-05T12:00:24.723Z,37.09
2022-11-05T12:03:11.742Z,37.10
2022-11-05T12:06:01.817Z,37.07
2022-11-05T12:08:30.084Z,37.26
2022-11-05T12:11:00.819Z,37.32
2022-11-05T12:13:54.058Z,37.29
2022-11-05T12:16:25.215Z,37.22
2022-11-05T12:19:03.225Z,37.23
2022-11-05T12:21:58.429Z,37.26
2022-11-05T12:25:02.921Z,37.38
2022-11-05T12:27:40.501Z,37.52
2022-11-05T12:30:14.972Z,37.74
2022-11-05T12:33:07.722Z,37.91
2022-11-05T12:36:07.675Z,37.99
2022-11-05T12:38:52.739Z,37.90
2022-11-05T12:41:49.782Z,38.07
2022-11-05T12:44:23.891Z,38.04
2022-11-05T12:47:01.175Z,38.14
2022-11-05T12:49:44.395Z,38.02
2022-11-05T12:52:52.591Z,37.84
2022-11-05T12:55:24.551Z,37.88
2022-11-05T12:57:55.188Z,37.87
2022-11-05T13:00:26.086Z,37.98
2022-11-05T13:03:06.584Z,37.99
2022-11-05T13:05:44.074Z,37.96
2022-11-05T13:08:29.145Z,37.78
2022-11-05T13:11:19.111Z,37.79
2022-11-05T13:14:11.875Z,37.90
2022-11-05T13:17:02.497Z,37.81
2022-11-05T13:19:57.575Z,37.97
2022-11-05T13:23:01.423Z,38.09
2022-11-05T13:25:34.773Z,38.13
2022-11-05T13:28:25.421Z,38.14
2022-11-05T13:30:58.024Z,38.28
2022-11-05T13:33:47.457Z,38.01
2022-11-05T13:36:20.882Z,37.84
2022-11-05T13:39:21.794Z,38.00
2022-11-05T13:42:05.305Z,37.82
2022-11-05T13:45:11.244Z,37.68
2022-11-05T13:47:54.985Z,37.48
2022-11-05T13:50:42.905Z,37.54
2022-11-05T13:53:48.640Z,37.67
2022-11-05T13:56:53.658Z,37.64
2022-11-05T13:59:49.982Z,37.50
2022-11-05T14:02:22.807Z,37.67
2022-11-05T14:05:00.785Z,38.01
2022-11-05T14:07:33.443Z,38.05
2022-11-05T14:10:21.585Z,38.02
2022-11-05T14:12:53.346Z,38.07
2022-11-05T14:15:25.217Z,38.16
2022-11-05T14:18:34.958Z,38.19
2022-11-05T14:21:05.482Z,38.27
2022-11-05T14:23:40.395Z,38.19
2022-11-05T14:26:11.844Z,38.25
2022-11-05T14:28:46.623Z,38.12
2022-11-05T14:31:47.405Z,38.12
2022-11-05T14:34:20.859Z,38.10
2022-11-05T14:37:10.763Z,38.14
2022-11-05T14:39:40.479Z,38.11
2022-11-05T14:42:22.795Z,37.86
2022-11-05T14:45:30.052Z,37.93
2022-11-05T14:48:05.040Z,37.95
2022-11-05T14:50:41.808Z,37.60
2022-11-05T14:53:12.147Z,37.69
2022-11-05T14:55:43.640Z,37.75
2022-11-05T14:58:18.057Z,37.26
2022-11-05T15:00:48.012Z,36.73
2022-11-05T15:03:47.062Z,36.23
2022-11-05T15:06:37.145Z,36.55
2022-11-05T15:09:40.723Z,36.77
2022-11-05T15:12:20.059Z,36.94
2022-11-05T15:15:21.210Z,37.02
2022-11-05T15:17:58.985Z,37.08
2022-11-05T15:20:44.663Z,37.18
2022-11-05T15:23:19.627Z,37.18
2022-11-05T15:26:30.770Z,37.06
2022-11-05T15:29:01.114Z,36.58
2022-11-05T15:31:34.698Z,36.41
2022-11-05T15:34:27.525Z,36.06
2022-11-05T15:37:03.073Z,35.40
2022-11-05T15:39:44.144Z,35.33
2022-11-05T15:42:15.294Z,35.39
2022-11-05T15:45:03.730Z,35.49
2022-11-05T15:47:35.281Z,35.64
2022-11-05T15:50:14.690Z,35.63
2022-11-05T15:52:52.471Z,35.68
2022-11-05T15:55:25.827Z,35.73
2022-11-05T15:57:56.647Z,35.36
2022-11-05T16:00:31.195Z,35.00
2022-11-05T16:03:03.440Z,34.59
2022-11-05T16:05:35.773Z,34.61
2022-11-05T16:08:04.200Z,34.16
2022-11-05T16:10:36.983Z,34.01
2022-11-05T16:13:50.595Z,34.10
2022-11-05T16:16:18.782Z,33.83
2022-11-05T16:18:47.422Z,34.11
2022-11-05T16:21:20.526Z,34.50
2022-11-05T16:23:48.814Z,34.53
2022-11-05T16:29:35.645Z,34.24
2022-11-05T16:32:31.145Z,33.87
2022-11-05T16:35:02.947Z,33.94
2022-11-05T16:37:40.301Z,34.05
2022-11-05T16:40:18.185Z,34.08
2022-11-05T16:42:46.985Z,34.16
2022-11-05T16:45:17.178Z,34.19
2022-11-05T16:47:46.207Z,34.12
2022-11-05T16:50:27.408Z,34.04
2022-11-05T16:52:55.663Z,34.03
2022-11-05T16:55:24.047Z,33.92
2022-11-05T16:57:54.669Z,33.86
2022-11-05T17:00:24.634Z,34.13
2022-11-05T17:02:53.590Z,34.05
2022-11-05T17:05:27.607Z,33.72
2022-11-05T17:07:56.306Z,33.49
2022-11-05T17:10:26.116Z,33.46
2022-11-05T17:12:54.603Z,33.41
2022-11-05T17:15:31.111Z,33.44
2022-11-05T17:17:59.985Z,33.46
2022-11-05T17:20:34.963Z,33.23
2022-11-05T17:23:07.687Z,33.19
2022-11-05T17:25:36.274Z,33.15
2022-11-05T17:28:05.067Z,33.01
2022-11-05T17:30:33.558Z,32.95
2022-11-05T17:33:01.717Z,33.05
2022-11-05T17:35:30.205Z,33.01
2022-11-05T17:37:58.383Z,32.92
2022-11-05T17:40:26.457Z,32.75
2022-11-05T17:42:54.729Z,32.77
2022-11-05T17:45:23.120Z,32.86
2022-11-05T17:47:51.479Z,32.94
2022-11-05T17:50:20.294Z,32.96
2022-11-05T17:52:48.560Z,32.97
2022-11-05T17:55:16.848Z,32.92
2022-11-05T17:57:50.501Z,32.85
2022-11-05T18:00:23.790Z,32.79
2022-11-05T18:02:53.757Z,32.79
2022-11-05T18:05:23.092Z,32.78
2022-11-05T18:07:51.645Z,32.73
2022-11-05T18:10:20.458Z,32.59
2022-11-05T18:12:49.110Z,32.29
2022-11-05T18:15:18.145Z,32.16
2022-11-05T18:17:46.636Z,32.15
2022-11-05T18:20:19.220Z,32.11
2022-11-05T18:22:52.105Z,32.20
2022-11-05T18:25:20.273Z,32.25
2022-11-05T18:27:48.348Z,32.26
2022-11-05T18:30:16.885Z,32.27
2022-11-05T18:32:45.372Z,32.31
2022-11-05T18:35:13.707Z,32.33
2022-11-05T18:37:42.209Z,32.32
2022-11-05T18:40:10.980Z,32.20
2022-11-05T18:42:39.985Z,32.13
2022-11-05T18:45:09.808Z,32.12
2022-11-05T18:47:38.187Z,32.14
2022-11-05T18:50:07.815Z,32.10
2022-11-05T18:52:36.274Z,31.97
2022-11-05T18:55:04.859Z,31.91
2022-11-05T18:57:34.227Z,31.89
2022-11-05T19:00:02.404Z,31.91
2022-11-05T19:02:30.793Z,31.90
2022-11-05T19:07:47.445Z,31.81
2022-11-05T19:10:16.034Z,31.85
2022-11-05T19:12:44.212Z,31.77
2022-11-05T19:15:12.497Z,31.70
2022-11-05T19:17:40.656Z,31.64
2022-11-05T19:20:09.666Z,31.55
2022-11-05T19:22:37.886Z,31.51
2022-11-05T19:25:06.741Z,31.41
2022-11-05T19:27:35.958Z,31.41
2022-11-05T19:30:06.578Z,31.35
2022-11-05T19:32:34.653Z,31.30
2022-11-05T19:35:02.852Z,31.22
2022-11-05T19:37:31.394Z,31.19
2022-11-05T19:39:59.704Z,31.05
2022-11-05T19:42:27.883Z,30.99
2022-11-05T19:44:56.261Z,31.10
2022-11-05T19:47:24.448Z,31.11
2022-11-05T19:49:52.540Z,31.06
2022-11-05T19:52:21.414Z,31.00
2022-11-05T19:54:49.462Z,30.91
2022-11-05T19:57:17.664Z,30.77
2022-11-05T19:59:45.740Z,30.66
2022-11-05T20:02:16.485Z,30.69
2022-11-05T20:04:44.757Z,30.73
2022-11-05T20:07:13.042Z,30.78
2022-11-05T20:09:41.533Z,30.71
2022-11-05T20:12:09.827Z,30.71
2022-11-05T20:14:38.289Z,30.71
2022-11-05T20:17:06.365Z,30.71
2022-11-05T20:19:34.543Z,30.69
2022-11-05T20:22:02.723Z,30.66
2022-11-05T20:24:31.001Z,30.58
2022-11-05T20:26:59.079Z,30.57
2022-11-05T20:29:33.811Z,30.63
2022-11-05T20:32:04.542Z,30.59
2022-11-05T20:34:34.065Z,30.62
2022-11-05T20:37:02.439Z,30.57
2022-11-05T20:39:30.823Z,30.53
2022-11-05T20:41:58.994Z,30.43
2022-11-05T20:44:27.173Z,30.41
2022-11-05T20:46:55.919Z,30.30
2022-11-05T20:49:25.844Z,30.25
2022-11-05T20:51:54.578Z,30.22
2022-11-05T20:54:23.268Z,30.21
2022-11-05T20:56:51.650Z,30.22
2022-11-05T20:59:19.793Z,30.20
2022-11-05T21:01:50.195Z,30.22
2022-11-05T21:04:18.802Z,30.26
2022-11-05T21:06:46.818Z,30.21
2022-11-05T21:09:14.994Z,30.06
2022-11-05T21:11:43.507Z,30.05
2022-11-05T21:14:11.658Z,30.02
2022-11-05T21:16:39.836Z,29.99
2022-11-05T21:19:08.323Z,29.94
2022-11-05T21:21:40.781Z,29.88
2022-11-05T21:24:09.607Z,29.83
2022-11-05T21:26:37.606Z,29.78
2022-11-05T21:29:05.847Z,29.75
2022-11-05T21:31:37.709Z,29.71
2022-11-05T21:34:05.893Z,29.71
2022-11-05T21:36:34.062Z,29.67
2022-11-05T21:39:02.353Z,29.64
2022-11-05T21:41:30.678Z,29.60
2022-11-05T21:43:59.110Z,29.59
2022-11-05T21:46:27.662Z,29.55
2022-11-05T21:48:55.876Z,29.50
2022-11-05T21:51:23.952Z,29.53
2022-11-05T21:53:52.334Z,29.52
2022-11-05T21:56:24.123Z,29.52
2022-11-05T21:58:52.278Z,29.57
2022-11-05T22:01:20.665Z,29.53
2022-11-05T22:03:48.762Z,29.48
2022-11-05T22:06:17.013Z,29.52
2022-11-05T22:08:45.212Z,29.47
2022-11-05T22:11:13.471Z,29.54
2022-11-05T22:13:41.652Z,29.41
2022-11-05T22:16:09.833Z,29.27
2022-11-05T22:18:38.104Z,29.20
2022-11-05T22:21:06.595Z,29.17
2022-11-05T22:23:34.985Z,29.15
2022-11-05T22:26:03.067Z,29.05
2022-11-05T22:28:31.233Z,29.10
2022-11-05T22:30:59.716Z,29.05
2022-11-05T22:33:27.812Z,29.05
2022-11-05T22:35:55.980Z,29.07
2022-11-05T22:38:24.521Z,29.13
2022-11-05T22:40:52.845Z,29.13
2022-11-05T22:43:21.020Z,29.18
2022-11-05T22:45:49.506Z,28.98
2022-11-05T22:48:17.583Z,28.96
2022-11-05T22:50:45.761Z,28.96
2022-11-05T22:53:14.268Z,28.97
2022-11-05T22:55:42.320Z,29.04
2022-11-05T22:58:11.123Z,28.98
2022-11-05T23:00:40.121Z,28.94
2022-11-05T23:03:11.083Z,28.80
2022-11-05T23:05:39.336Z,28.82
2022-11-05T23:08:07.627Z,28.75
2022-11-05T23:10:38.654Z,28.75
2022-11-05T23:13:06.708Z,28.75
2022-11-05T23:15:35.016Z,28.68
2022-11-05T23:18:03.120Z,28.61
2022-11-05T23:20:31.470Z,28.70
2022-11-05T23:22:59.754Z,28.71
2022-11-05T23:25:28.037Z,28.73
2022-11-05T23:27:56.311Z,28.72
2022-11-05T23:30:27.021Z,28.66
2022-11-05T23:32:56.197Z,28.72
2022-11-05T23:35:24.736Z,28.76
2022-11-05T23:37:52.810Z,28.71
2022-11-05T23:40:28.154Z,28.64
2022-11-05T23:42:57.605Z,28.59
2022-11-05T23:45:26.249Z,28.60
2022-11-05T23:47:54.633Z,28.59
2022-11-05T23:50:23.015Z,28.56
2022-11-05T23:52:53.581Z,28.42
2022-11-05T23:55:25.410Z,28.44
2022-11-05T23:57:53.520Z,28.46
